createdAt,value
2023-02-23T00:02:27.550Z,66.52
2023-02-23T00:09:35.268Z,66.25
2023-02-23T00:16:37.437Z,67.48
2023-02-23T00:23:39.227Z,68.03
2023-02-23T00:30:40.813Z,68.35
2023-02-23T00:37:47.941Z,68.25
2023-02-23T00:44:49.902Z,68.19
2023-02-23T00:51:52.234Z,67.93
2023-02-23T00:58:54.258Z,68.14
2023-02-23T01:06:05.234Z,67.92
2023-02-23T01:13:06.782Z,67.22
2023-02-23T01:20:18.109Z,68.48
2023-02-23T01:27:20.033Z,67.45
2023-02-23T01:34:21.678Z,68.06
2023-02-23T01:41:24.108Z,69.89
2023-02-23T01:48:27.950Z,67.99
2023-02-23T01:55:29.879Z,69.81
2023-02-23T02:02:34.344Z,69.49
2023-02-23T02:09:38.366Z,70.38
2023-02-23T02:17:02.450Z,68.98
2023-02-23T02:24:26.378Z,68.55
2023-02-23T02:32:02.056Z,68.83
2023-02-23T02:39:23.852Z,69.05
2023-02-23T02:46:28.667Z,69.07
2023-02-23T02:53:47.798Z,69.59
2023-02-23T03:01:08.029Z,70.33
2023-02-23T03:08:41.601Z,70.12
2023-02-23T03:16:33.123Z,70.42
2023-02-23T03:24:13.183Z,69.80
2023-02-23T03:31:42.089Z,70.08
2023-02-23T03:39:13.350Z,70.46
2023-02-23T03:46:34.135Z,70.81
2023-02-23T03:54:13.511Z,71.37
2023-02-23T04:01:33.575Z,70.75
2023-02-23T04:08:55.210Z,70.04
2023-02-23T04:16:08.372Z,70.53
2023-02-23T04:23:09.968Z,70.51
2023-02-23T04:30:12.002Z,71.55
2023-02-23T04:37:13.666Z,71.18
2023-02-23T04:44:15.214Z,70.64
2023-02-23T04:51:17.076Z,70.93
2023-02-23T04:58:18.763Z,71.72
2023-02-23T05:05:21.367Z,71.38
2023-02-23T05:12:22.869Z,70.35
2023-02-23T05:19:24.724Z,71.48
2023-02-23T05:26:26.285Z,70.50
2023-02-23T05:33:27.820Z,72.33
2023-02-23T05:40:29.326Z,72.77
2023-02-23T05:47:31.444Z,73.01
2023-02-23T05:54:33.045Z,72.79
2023-02-23T06:01:34.784Z,72.29
2023-02-23T06:08:36.362Z,71.51
2023-02-23T06:15:38.357Z,72.36
2023-02-23T06:22:39.944Z,73.82
2023-02-23T06:29:41.612Z,72.48
2023-02-23T06:36:43.251Z,72.31
2023-02-23T06:43:55.617Z,74.48
2023-02-23T06:51:00.327Z,73.49
2023-02-23T06:58:01.918Z,73.09
2023-02-23T07:05:04.680Z,73.08
2023-02-23T07:12:06.409Z,72.12
2023-02-23T07:19:08.056Z,72.24
2023-02-23T07:26:09.740Z,71.21
2023-02-23T07:33:11.276Z,71.56
2023-02-23T07:40:13.157Z,71.54
2023-02-23T07:47:14.757Z,71.00
2023-02-23T07:54:16.736Z,70.75
2023-02-23T08:01:18.693Z,69.49
2023-02-23T08:08:20.533Z,71.34
2023-02-23T08:15:22.130Z,70.13
2023-02-23T08:22:23.738Z,69.88
2023-02-23T08:29:25.273Z,69.24
2023-02-23T08:36:27.957Z,69.09
2023-02-23T08:43:29.744Z,68.97
2023-02-23T08:50:31.271Z,68.20
2023-02-23T08:57:34.110Z,67.34
2023-02-23T09:04:35.753Z,67.61
2023-02-23T09:11:37.377Z,66.90
2023-02-23T09:18:39.116Z,67.46
2023-02-23T09:25:43.822Z,67.23
2023-02-23T09:32:45.652Z,67.73
2023-02-23T09:39:48.731Z,66.88
2023-02-23T09:47:22.691Z,66.20
2023-02-23T09:54:25.591Z,66.50
2023-02-23T10:01:36.334Z,64.87
2023-02-23T10:08:59.176Z,63.45
2023-02-23T10:16:06.694Z,62.13
2023-02-23T10:23:15.329Z,63.88
2023-02-23T10:30:29.100Z,59.82
2023-02-23T10:37:30.837Z,56.16
2023-02-23T10:44:32.505Z,53.75
2023-02-23T10:51:36.831Z,53.06
2023-02-23T10:58:48.873Z,52.12
2023-02-23T11:05:52.704Z,51.30
2023-02-23T11:12:54.211Z,50.71
2023-02-23T11:20:01.684Z,50.56
2023-02-23T11:27:07.743Z,50.85
2023-02-23T11:34:11.229Z,50.88
2023-02-23T11:41:23.503Z,51.03
2023-02-23T11:48:56.836Z,50.59
2023-02-23T11:55:59.360Z,49.63
2023-02-23T12:03:01.361Z,50.47
2023-02-23T12:10:19.102Z,49.93
2023-02-23T12:17:33.712Z,50.00
2023-02-23T12:24:45.450Z,49.49
2023-02-23T12:31:50.080Z,51.10
2023-02-23T12:38:57.890Z,51.12
2023-02-23T12:46:02.346Z,52.65
2023-02-23T12:53:42.986Z,52.58
2023-02-23T13:00:53.059Z,53.00
2023-02-23T13:08:14.821Z,54.23
2023-02-23T13:15:24.614Z,54.50
2023-02-23T13:22:52.871Z,54.20
2023-02-23T13:29:54.965Z,54.48
2023-02-23T13:36:57.182Z,55.52
2023-02-23T13:44:03.020Z,56.62
2023-02-23T13:51:30.443Z,57.19
2023-02-23T13:58:32.046Z,57.74
2023-02-23T14:05:42.195Z,58.45
2023-02-23T14:13:17.910Z,58.57
2023-02-23T14:20:38.237Z,60.26
2023-02-23T14:27:43.290Z,61.58
2023-02-23T14:34:58.478Z,62.73
2023-02-23T14:42:00.064Z,63.85
2023-02-23T14:49:02.583Z,64.18
2023-02-23T14:56:04.653Z,64.78
2023-02-23T15:03:12.454Z,64.89
2023-02-23T15:10:32.895Z,65.03
2023-02-23T15:17:34.953Z,66.44
2023-02-23T15:24:44.099Z,66.60
2023-02-23T15:31:52.218Z,66.45
2023-02-23T15:38:55.167Z,67.26
2023-02-23T15:45:59.354Z,67.04
2023-02-23T15:53:03.330Z,66.97
2023-02-23T16:00:10.610Z,68.01
2023-02-23T16:07:20.122Z,68.91
2023-02-23T16:14:22.642Z,68.45
2023-02-23T16:21:24.383Z,68.63
2023-02-23T16:28:30.760Z,69.01
2023-02-23T16:35:49.878Z,69.56
2023-02-23T16:42:53.311Z,69.71
2023-02-23T16:49:55.511Z,70.28
2023-02-23T16:56:57.155Z,71.35
2023-02-23T17:03:59.083Z,71.56
2023-02-23T17:11:00.662Z,72.66
2023-02-23T17:18:02.229Z,73.27
2023-02-23T17:25:04.710Z,74.08
2023-02-23T17:32:06.480Z,74.88
2023-02-23T17:39:09.863Z,76.49
2023-02-23T17:46:11.750Z,76.13
2023-02-23T17:53:13.425Z,76.56
2023-02-23T18:00:16.238Z,77.37
2023-02-23T18:07:18.410Z,77.49
2023-02-23T18:14:19.959Z,78.33
2023-02-23T18:21:22.088Z,78.76
2023-02-23T18:28:23.702Z,79.00
2023-02-23T18:35:25.363Z,79.36
2023-02-23T18:42:27.077Z,79.75
2023-02-23T18:49:28.628Z,79.99
2023-02-23T18:56:30.415Z,79.99
2023-02-23T19:03:31.943Z,81.01
2023-02-23T19:10:33.994Z,81.67
2023-02-23T19:17:35.749Z,81.92
2023-02-23T19:24:38.164Z,80.99
2023-02-23T19:31:39.892Z,81.68
2023-02-23T19:38:44.251Z,81.73
2023-02-23T19:45:46.663Z,81.29
2023-02-23T19:52:48.427Z,81.87
2023-02-23T19:59:50.139Z,81.43
2023-02-23T20:06:52.335Z,82.33
2023-02-23T20:13:54.333Z,83.36
2023-02-23T20:20:55.841Z,81.38
2023-02-23T20:27:59.303Z,79.83
2023-02-23T20:35:00.908Z,78.95
2023-02-23T20:42:02.440Z,77.20
2023-02-23T20:49:04.093Z,76.19
2023-02-23T20:56:06.787Z,76.55
2023-02-23T21:03:08.375Z,76.09
2023-02-23T21:10:10.509Z,77.89
2023-02-23T21:17:12.114Z,77.54
2023-02-23T21:24:14.954Z,76.61
2023-02-23T21:31:16.549Z,76.62
2023-02-23T21:38:18.132Z,77.44
2023-02-23T21:45:19.756Z,77.39
2023-02-23T21:52:21.403Z,77.87
2023-02-23T21:59:22.968Z,76.95
2023-02-23T22:06:26.415Z,78.04
2023-02-23T22:13:27.934Z,77.12
2023-02-23T22:20:29.447Z,77.82
2023-02-23T22:27:31.277Z,78.20
2023-02-23T22:34:32.832Z,78.84
2023-02-23T22:41:42.075Z,78.51
2023-02-23T22:48:46.998Z,79.18
2023-02-23T22:55:53.981Z,78.50
2023-02-23T23:02:55.538Z,78.46
2023-02-23T23:09:58.514Z,78.67
2023-02-23T23:17:00.151Z,78.88
2023-02-23T23:24:05.451Z,78.67
2023-02-23T23:31:10.352Z,79.28
2023-02-23T23:38:14.339Z,79.78
2023-02-23T23:45:17.574Z,78.25
2023-02-23T23:52:20.661Z,78.97
2023-02-23T23:59:23.029Z,79.17
